Monday, June 18, 2018, 8:48 PM EDT
Back to Local

KPQI, Presque Isle

Location: Presque Isle, ME, United States Lat: 46.683
Local Time: 8:48 PM EDT ( 0:48 GMT) Lon: -68.05
Time Zone: US/Eastern Elev: 534 ft

Show me the last for .
Show Decoded

2018-06-18 19:56 METAR KPQI 182356Z AUTO 19005KT 10SM -RA FEW039 BKN070 OVC100 22/20 A2949 RMK
                 AO2 RAB54 SLP023 P0000 60000 T02170200 10217 20211 56021 =
2018-06-18 19:31 METAR KPQI 182331Z AUTO 19006KT 10SM SCT015 OVC065 21/20 A2949 RMK AO2 =
2018-06-18 18:56 METAR KPQI 182256Z AUTO 19006KT 10SM BKN015 BKN055 22/20 A2950 RMK AO2
                 RAB2157E50 SLP029 P0000 T02170200 =
2018-06-18 18:43 METAR KPQI 182243Z AUTO 19008KT 10SM -RA BKN015 BKN020 BKN055 21/20 A2951 RMK
                 AO2 RAB2157 P0000 =
2018-06-18 17:56 METAR KPQI 182156Z AUTO 20008KT 10SM FEW018 SCT120 21/19 A2951 RMK AO2 RAB01E16
                 SLP032 P0000 T02110194 =
2018-06-18 16:56 METAR KPQI 182056Z AUTO 19009KT 10SM SCT019 BKN090 21/19 A2955 RMK AO2 RAB16E27
                 SLP045 P0000 60000 T02110194 58014 =
2018-06-18 16:15 METAR KPQI 182015Z AUTO 18011KT 10SM FEW018 SCT026 BKN080 21/19 A2956 RMK AO2 =
2018-06-18 15:56 METAR KPQI 181956Z AUTO 18011KT 10SM BKN018 OVC026 21/19 A2957 RMK AO2 RAB10E36
                 SLP051 P0000 T02110194 =
2018-06-18 14:56 METAR KPQI 181856Z AUTO 18008KT 10SM BKN020 21/19 A2958 RMK AO2 SLP056 T02110189
                 =
2018-06-18 14:15 METAR KPQI 181815Z AUTO 19009KT 10SM SCT020 BKN028 22/19 A2959 RMK AO2 =
2018-06-18 13:56 METAR KPQI 181756Z AUTO 19009KT 10SM FEW018 22/19 A2959 RMK AO2 SLP058 60010
                 T02170189 10217 20122 56026 =
2018-06-18 13:41 METAR KPQI 181741Z AUTO 20009KT 10SM SCT018 22/19 A2960 RMK AO2 =
2018-06-18 13:29 METAR KPQI 181729Z AUTO 19007G15KT 10SM BKN018 21/18 A2961 RMK AO2 =
2018-06-18 12:56 METAR KPQI 181656Z AUTO 19011KT 10SM FEW018 21/18 A2962 RMK AO2 SLP070 T02060178
                 TSNO =
2018-06-18 12:54 METAR KPQI 181654Z AUTO 19010KT 10SM FEW018 SCT032 21/18 A2963 RMK AO2 =
2018-06-18 11:56 METAR KPQI 181556Z AUTO 14005KT 10SM FEW008 OVC024 16/15 A2967 RMK AO2 RAE02
                 SLP087 P0000 T01610150 =
2018-06-18 10:56 METAR KPQI 181456Z AUTO 16008KT 10SM -RA SCT007 OVC020 14/13 A2969 RMK AO2 RAB50
                 SLP094 P0000 60010 T01390128 58027 =
2018-06-18 10:42 METAR KPQI 181442Z AUTO 15008KT 10SM SCT007 OVC020 13/13 A2969 RMK AO2 =
2018-06-18 09:41 METAR KPQI 181341Z AUTO 15007KT 10SM OVC007 12/12 A2973 RMK AO2 RAE28 CIG
                 006V010 P0001 =
2018-06-18 09:04 METAR KPQI 181304Z AUTO 15008KT 10SM -RA OVC005 12/12 A2975 RMK AO2 P0000 =
2018-06-18 08:56 METAR KPQI 181256Z AUTO 14005KT 6SM -RA BR OVC007 12/12 A2975 RMK AO2 SLP116
                 P0009 T01220117 =
2018-06-18 07:56 METAR KPQI 181156Z AUTO 15008KT 8SM -RA OVC007 12/12 A2977 RMK AO2 PRESFR SLP121
                 P0003 60012 70014 T01220117 10122 20111 58029 =
2018-06-18 07:43 METAR KPQI 181143Z AUTO 14006KT 8SM -RA BKN007 OVC055 12/11 A2978 RMK AO2 P0002
                 =
2018-06-18 07:33 METAR KPQI 181133Z AUTO 14008KT 10SM -RA SCT007 BKN050 OVC090 12/11 A2979 RMK
                 AO2 P0001 =
2018-06-18 06:56 METAR KPQI 181056Z AUTO 15007KT 4SM RA BR OVC037 12/11 A2981 RMK AO2 SLP135
                 P0005 T01170106 =
2018-06-18 05:56 METAR KPQI 180956Z AUTO 15007KT 10SM -RA OVC075 11/10 A2983 RMK AO2 SLP141 P0003
                 T01110100 =
2018-06-18 04:56 METAR KPQI 180856Z AUTO 15007KT 10SM -RA SCT080 BKN095 OVC120 11/09 A2985 RMK
                 AO2 SLP150 P0001 60001 T01110094 56020 =
2018-06-18 03:56 METAR KPQI 180756Z AUTO 15008KT 10SM -RA FEW080 OVC100 11/09 A2987 RMK AO2
                 SLP157 P0000 T01110089 =
2018-06-18 02:56 METAR KPQI 180656Z AUTO 16010KT 10SM -RA OVC100 12/08 A2988 RMK AO2 RAB06 SLP161
                 P0000 T01170078 =
2018-06-18 01:56 METAR KPQI 180556Z AUTO 16008KT 10SM FEW110 12/07 A2991 RMK AO2 SLP170 60002
                 T01220072 10172 20122 58020 =
2018-06-18 00:56 METAR KPQI 180456Z AUTO 13004KT 10SM BKN095 13/08 A2994 RMK AO2 SLP177 T01280083
                 402060072 =
2018-06-17 23:56 METAR KPQI 180356Z AUTO 16009KT 10SM OVC080 13/09 A2996 RMK AO2 SLP186 T01330089
                 =
2018-06-17 22:56 METAR KPQI 180256Z AUTO 18009KT 10SM OVC080 14/11 A2997 RMK AO2 RAE02 SLP191
                 P0000 60002 T01440106 58010 =
2018-06-17 21:56 METAR KPQI 180156Z AUTO 17009KT 10SM -RA SCT065 OVC080 15/12 A2999 RMK AO2
                 SLP196 P0000 T01500117 =
2018-06-17 20:56 METAR KPQI 180056Z AUTO 18008G16KT 10SM -RA OVC080 17/14 A2999 RMK AO2 SLP198
                 P0002 T01670144 =

Support USWX by starting your Amazon purchase here.